createdAt,value
2019-01-16T00:00:52.954Z,6.89
2019-01-16T00:01:52.982Z,6.84
2019-01-16T00:02:52.938Z,6.89
2019-01-16T00:03:52.932Z,6.87
2019-01-16T00:04:52.915Z,6.88
2019-01-16T00:05:52.912Z,6.88
2019-01-16T00:06:52.898Z,6.99
2019-01-16T00:07:52.880Z,7.00
2019-01-16T00:08:52.871Z,6.99
2019-01-16T00:09:52.865Z,6.97
2019-01-16T00:10:52.847Z,6.97
2019-01-16T00:11:52.843Z,6.96
2019-01-16T00:12:52.830Z,6.99
2019-01-16T00:13:52.823Z,7.03
2019-01-16T00:14:52.806Z,6.99
2019-01-16T00:15:52.796Z,6.93
2019-01-16T00:16:52.786Z,6.97
2019-01-16T00:17:52.776Z,6.93
2019-01-16T00:18:52.766Z,6.92
2019-01-16T00:19:52.755Z,6.99
2019-01-16T00:20:52.739Z,6.89
2019-01-16T00:21:52.731Z,6.99
2019-01-16T00:22:52.723Z,6.92
2019-01-16T00:23:52.714Z,6.88
2019-01-16T00:24:52.750Z,6.88
2019-01-16T00:25:52.687Z,6.93
2019-01-16T00:26:52.680Z,6.95
2019-01-16T00:27:52.679Z,7.00
2019-01-16T00:28:52.660Z,6.88
2019-01-16T00:29:52.650Z,6.89
2019-01-16T00:30:52.635Z,6.87
2019-01-16T00:31:52.626Z,6.96
2019-01-16T00:32:52.618Z,6.96
2019-01-16T00:33:52.606Z,6.89
2019-01-16T00:34:52.597Z,6.87
2019-01-16T00:35:52.581Z,6.95
2019-01-16T00:36:52.616Z,6.96
2019-01-16T00:37:52.562Z,7.00
2019-01-16T00:38:52.555Z,6.97
2019-01-16T00:39:52.542Z,7.03
2019-01-16T00:40:52.530Z,6.93
2019-01-16T00:41:52.522Z,7.03
2019-01-16T00:42:52.506Z,6.96
2019-01-16T00:43:52.499Z,6.97
2019-01-16T00:44:52.488Z,6.96
2019-01-16T00:45:52.474Z,6.87
2019-01-16T00:46:52.466Z,6.93
2019-01-16T00:47:52.456Z,6.97
2019-01-16T00:48:52.444Z,6.96
2019-01-16T00:49:52.454Z,6.96
2019-01-16T00:50:52.421Z,6.97
2019-01-16T00:51:52.414Z,6.99
2019-01-16T00:52:52.407Z,7.03
2019-01-16T00:53:52.391Z,6.93
2019-01-16T00:54:52.381Z,6.92
2019-01-16T00:55:52.370Z,7.03
2019-01-16T00:56:52.358Z,7.02
2019-01-16T00:57:52.343Z,7.03
2019-01-16T00:58:52.341Z,7.03
2019-01-16T00:59:52.329Z,6.93
2019-01-16T01:00:52.315Z,6.92
2019-01-16T01:01:52.305Z,6.87
2019-01-16T01:02:52.293Z,6.87
2019-01-16T01:03:52.285Z,6.93
2019-01-16T01:04:52.271Z,6.88
2019-01-16T01:05:52.263Z,6.88
2019-01-16T01:06:52.251Z,6.88
2019-01-16T01:07:52.242Z,6.81
2019-01-16T01:08:52.231Z,6.87
2019-01-16T01:09:52.219Z,6.82
2019-01-16T01:10:52.206Z,6.78
2019-01-16T01:11:52.205Z,6.79
2019-01-16T01:12:52.190Z,6.72
2019-01-16T01:13:52.180Z,6.69
2019-01-16T01:14:52.169Z,6.70
2019-01-16T01:15:52.153Z,6.70
2019-01-16T01:16:52.140Z,6.67
2019-01-16T01:17:52.134Z,6.69
2019-01-16T01:18:52.127Z,6.66
2019-01-16T01:19:52.117Z,6.70
2019-01-16T01:20:52.105Z,6.67
2019-01-16T01:21:52.090Z,6.64
2019-01-16T01:22:52.078Z,6.67
2019-01-16T01:23:52.173Z,6.67
2019-01-16T01:24:52.057Z,6.70
2019-01-16T01:25:52.046Z,6.60
2019-01-16T01:26:52.041Z,6.52
2019-01-16T01:27:52.031Z,6.67
2019-01-16T01:28:52.020Z,6.52
2019-01-16T01:29:52.009Z,6.56
2019-01-16T01:30:51.998Z,6.57
2019-01-16T01:31:51.986Z,6.63
2019-01-16T01:32:52.007Z,6.56
2019-01-16T01:33:51.967Z,6.62
2019-01-16T01:34:51.952Z,6.62
2019-01-16T01:35:51.941Z,6.54
2019-01-16T01:36:51.931Z,6.60
2019-01-16T01:37:51.928Z,6.62
2019-01-16T01:38:51.913Z,6.57
2019-01-16T01:39:51.906Z,6.62
2019-01-16T01:40:51.892Z,6.59
2019-01-16T01:41:51.882Z,6.42
2019-01-16T01:42:51.868Z,6.51
2019-01-16T01:43:51.864Z,6.51
2019-01-16T01:44:51.850Z,6.48
2019-01-16T01:45:51.841Z,6.51
2019-01-16T01:46:51.831Z,6.46
2019-01-16T01:47:51.821Z,6.51
2019-01-16T01:48:51.809Z,6.46
2019-01-16T01:49:51.795Z,6.42
2019-01-16T01:50:51.783Z,6.49
2019-01-16T01:51:51.778Z,6.51
2019-01-16T01:52:51.764Z,6.48
2019-01-16T01:53:51.756Z,6.46
2019-01-16T01:54:51.745Z,6.56
2019-01-16T01:55:51.729Z,6.49
2019-01-16T01:56:51.725Z,6.59
2019-01-16T01:57:51.710Z,6.57
2019-01-16T01:58:51.703Z,6.60
2019-01-16T01:59:51.690Z,6.54
2019-01-16T02:00:51.681Z,6.54
2019-01-16T02:01:51.668Z,6.57
2019-01-16T02:02:51.657Z,6.56
2019-01-16T02:03:51.646Z,6.51
2019-01-16T02:04:51.636Z,6.67
2019-01-16T02:05:51.625Z,6.69
2019-01-16T02:06:51.611Z,6.60
2019-01-16T02:07:51.605Z,6.59
2019-01-16T02:08:51.592Z,6.70
2019-01-16T02:09:51.582Z,6.72
2019-01-16T02:10:51.570Z,6.64
2019-01-16T02:11:51.557Z,6.69
2019-01-16T02:12:51.559Z,6.69
2019-01-16T02:13:51.536Z,6.70
2019-01-16T02:14:51.530Z,6.72
2019-01-16T02:15:51.519Z,6.74
2019-01-16T02:16:51.505Z,6.77
2019-01-16T02:17:51.498Z,6.67
2019-01-16T02:18:51.483Z,6.77
2019-01-16T02:19:51.474Z,6.77
2019-01-16T02:20:51.462Z,6.69
2019-01-16T02:21:51.451Z,6.70
2019-01-16T02:22:51.457Z,6.81
2019-01-16T02:23:51.426Z,6.79
2019-01-16T02:24:51.418Z,6.75
2019-01-16T02:25:51.408Z,6.79
2019-01-16T02:26:51.396Z,6.78
2019-01-16T02:27:51.386Z,6.78
2019-01-16T02:28:51.377Z,6.75
2019-01-16T02:29:51.363Z,6.77
2019-01-16T02:30:53.352Z,6.78
2019-01-16T02:31:51.403Z,6.77
2019-01-16T02:32:51.333Z,6.79
2019-01-16T02:33:51.323Z,6.78
2019-01-16T02:34:51.318Z,6.69
2019-01-16T02:35:51.304Z,6.74
2019-01-16T02:36:51.365Z,6.67
2019-01-16T02:37:51.280Z,6.64
2019-01-16T02:38:51.273Z,6.74
2019-01-16T02:39:51.264Z,6.74
2019-01-16T02:40:51.252Z,6.75
2019-01-16T02:41:51.235Z,6.75
2019-01-16T02:42:51.226Z,6.74
2019-01-16T02:43:51.218Z,6.72
2019-01-16T02:44:51.206Z,6.70
2019-01-16T02:45:51.197Z,6.70
2019-01-16T02:46:51.196Z,6.70
2019-01-16T02:47:51.176Z,6.70
2019-01-16T02:48:55.864Z,6.66
2019-01-16T02:49:51.154Z,6.64
2019-01-16T02:50:51.142Z,6.70
2019-01-16T02:51:51.129Z,6.64
2019-01-16T02:52:51.121Z,6.70
2019-01-16T02:53:51.174Z,6.69
2019-01-16T02:54:51.103Z,6.64
2019-01-16T02:55:51.092Z,6.72
2019-01-16T02:56:51.084Z,6.67
2019-01-16T02:57:51.066Z,6.66
2019-01-16T02:58:51.062Z,6.67
2019-01-16T02:59:51.052Z,6.66
2019-01-16T03:00:51.037Z,6.69
2019-01-16T03:01:51.024Z,6.77
2019-01-16T03:02:51.021Z,6.78
2019-01-16T03:03:51.009Z,6.69
2019-01-16T03:04:50.993Z,6.70
2019-01-16T03:05:50.991Z,6.79
2019-01-16T03:06:50.973Z,6.78
2019-01-16T03:07:50.964Z,6.74
2019-01-16T03:08:50.955Z,6.67
2019-01-16T03:09:50.949Z,6.75
2019-01-16T03:10:50.941Z,6.85
2019-01-16T03:11:50.923Z,6.87
2019-01-16T03:12:50.913Z,6.78
2019-01-16T03:13:50.903Z,6.89
2019-01-16T03:14:50.891Z,6.85
2019-01-16T03:15:50.882Z,6.95
2019-01-16T03:16:50.867Z,6.93
2019-01-16T03:17:50.859Z,6.92
2019-01-16T03:18:50.850Z,6.85
2019-01-16T03:19:50.840Z,6.87
2019-01-16T03:20:50.829Z,6.87
2019-01-16T03:21:50.814Z,6.89
2019-01-16T03:22:50.809Z,6.89
2019-01-16T03:23:50.792Z,6.88
2019-01-16T03:24:50.789Z,6.89
2019-01-16T03:25:50.772Z,6.93
2019-01-16T03:26:50.764Z,6.87
2019-01-16T03:27:50.753Z,6.89
2019-01-16T03:28:50.743Z,6.78
2019-01-16T03:29:50.733Z,6.87
2019-01-16T03:30:50.723Z,6.82
2019-01-16T03:31:50.709Z,6.88
2019-01-16T03:32:50.703Z,6.92
2019-01-16T03:33:50.691Z,6.87
2019-01-16T03:34:50.680Z,6.93
2019-01-16T03:35:50.669Z,6.84
2019-01-16T03:36:50.658Z,6.84
2019-01-16T03:37:50.646Z,6.88
2019-01-16T03:38:50.637Z,6.79
2019-01-16T03:39:50.628Z,6.89
2019-01-16T03:40:50.617Z,6.95
2019-01-16T03:41:50.602Z,6.87
2019-01-16T03:42:50.597Z,6.92
2019-01-16T03:43:50.587Z,6.85
2019-01-16T03:44:50.574Z,6.81
2019-01-16T03:45:50.561Z,6.92
2019-01-16T03:46:50.590Z,6.87
2019-01-16T03:47:50.542Z,6.88
2019-01-16T03:48:50.533Z,6.87
2019-01-16T03:49:50.522Z,6.78
2019-01-16T03:50:50.510Z,6.84
2019-01-16T03:51:50.598Z,6.89
2019-01-16T03:52:50.490Z,6.82
2019-01-16T03:53:50.480Z,6.79
2019-01-16T03:54:50.468Z,6.88
2019-01-16T03:55:50.456Z,6.78
2019-01-16T03:56:50.442Z,6.87
2019-01-16T03:57:50.439Z,6.85
2019-01-16T03:58:50.425Z,6.82
2019-01-16T03:59:50.419Z,6.84
2019-01-16T04:00:50.401Z,6.87
2019-01-16T04:01:50.405Z,6.92
2019-01-16T04:02:50.384Z,6.88
2019-01-16T04:03:50.372Z,6.81
2019-01-16T04:04:50.360Z,6.85
2019-01-16T04:05:50.353Z,6.95
2019-01-16T04:06:50.341Z,6.93
2019-01-16T04:07:50.323Z,6.87
2019-01-16T04:08:50.320Z,6.84
2019-01-16T04:09:50.309Z,6.79
2019-01-16T04:10:50.300Z,6.87
2019-01-16T04:11:50.287Z,6.84
2019-01-16T04:12:50.273Z,6.88
2019-01-16T04:13:50.263Z,6.88
2019-01-16T04:14:50.255Z,6.87
2019-01-16T04:15:50.242Z,6.93
2019-01-16T04:16:50.232Z,6.92
2019-01-16T04:17:50.222Z,6.87
2019-01-16T04:18:50.214Z,6.89
2019-01-16T04:19:50.202Z,6.85
2019-01-16T04:20:50.191Z,6.79
2019-01-16T04:21:50.180Z,6.88
2019-01-16T04:22:50.173Z,6.84
2019-01-16T04:23:50.157Z,6.82
2019-01-16T04:24:50.149Z,6.79
2019-01-16T04:25:50.145Z,6.92
2019-01-16T04:26:50.127Z,6.78
2019-01-16T04:27:50.115Z,6.79
2019-01-16T04:28:50.104Z,6.77
2019-01-16T04:29:50.093Z,6.72
2019-01-16T04:30:50.081Z,6.85
2019-01-16T04:31:50.074Z,6.69
2019-01-16T04:32:50.065Z,6.70
2019-01-16T04:33:50.054Z,6.69
2019-01-16T04:34:50.045Z,6.81
2019-01-16T04:35:50.033Z,6.75
2019-01-16T04:36:50.022Z,6.69
2019-01-16T04:37:50.014Z,6.72
2019-01-16T04:38:50.002Z,6.79
2019-01-16T04:39:49.989Z,6.81
2019-01-16T04:40:49.981Z,6.75
2019-01-16T04:41:49.978Z,6.69
2019-01-16T04:42:50.007Z,6.67
2019-01-16T04:43:49.949Z,6.78
2019-01-16T04:44:49.940Z,6.64
2019-01-16T04:45:49.929Z,6.67
2019-01-16T04:46:49.919Z,6.67
2019-01-16T04:47:49.910Z,6.75
2019-01-16T04:48:49.897Z,6.72
2019-01-16T04:49:49.886Z,6.75
2019-01-16T04:50:49.876Z,6.67
2019-01-16T04:51:49.862Z,6.74
2019-01-16T04:52:49.851Z,6.81
2019-01-16T04:53:49.846Z,6.74
2019-01-16T04:54:49.844Z,6.70
2019-01-16T04:55:51.134Z,6.70
2019-01-16T04:56:49.815Z,6.64
2019-01-16T04:57:49.801Z,6.63
2019-01-16T04:58:49.795Z,6.70
2019-01-16T04:59:49.784Z,6.69
2019-01-16T05:00:49.780Z,6.69
2019-01-16T05:01:49.761Z,6.62
2019-01-16T05:02:49.746Z,6.69
2019-01-16T05:03:49.739Z,6.72
2019-01-16T05:04:49.726Z,6.66
2019-01-16T05:05:49.714Z,6.70
2019-01-16T05:06:49.709Z,6.69
2019-01-16T05:07:49.697Z,6.66
2019-01-16T05:08:49.687Z,6.67
2019-01-16T05:09:49.676Z,6.64
2019-01-16T05:10:49.666Z,6.67
2019-01-16T05:11:49.652Z,6.66
2019-01-16T05:12:49.640Z,6.62
2019-01-16T05:13:49.636Z,6.62
2019-01-16T05:14:49.622Z,6.64
2019-01-16T05:15:49.619Z,6.66
2019-01-16T05:16:49.604Z,6.69
2019-01-16T05:17:49.596Z,6.67
2019-01-16T05:18:49.583Z,6.69
2019-01-16T05:19:49.569Z,6.69
2019-01-16T05:20:49.560Z,6.70
2019-01-16T05:21:49.549Z,6.64
2019-01-16T05:22:49.538Z,6.69
2019-01-16T05:23:49.527Z,6.63
2019-01-16T05:24:49.514Z,6.51
2019-01-16T05:25:49.502Z,6.59
2019-01-16T05:26:49.496Z,6.52
2019-01-16T05:27:49.484Z,6.51
2019-01-16T05:28:49.488Z,6.60
2019-01-16T05:29:49.461Z,6.67
2019-01-16T05:30:49.453Z,6.64
2019-01-16T05:31:49.442Z,6.67
2019-01-16T05:32:49.428Z,6.70
2019-01-16T05:33:49.418Z,6.56
2019-01-16T05:34:49.404Z,6.59
2019-01-16T05:35:49.395Z,6.59
2019-01-16T05:36:49.386Z,6.60
2019-01-16T05:37:49.371Z,6.56
2019-01-16T05:38:49.361Z,6.56
2019-01-16T05:39:49.356Z,6.62
2019-01-16T05:40:49.342Z,6.54
2019-01-16T05:41:49.329Z,6.60
2019-01-16T05:42:49.324Z,6.59
2019-01-16T05:43:49.308Z,6.60
2019-01-16T05:44:49.299Z,6.62
2019-01-16T05:45:49.285Z,6.56
2019-01-16T05:46:49.274Z,6.60
2019-01-16T05:47:49.270Z,6.57
2019-01-16T05:48:49.257Z,6.56
2019-01-16T05:49:49.247Z,6.52
2019-01-16T05:50:49.234Z,6.57
2019-01-16T05:51:49.229Z,6.59
2019-01-16T05:52:49.217Z,6.52
2019-01-16T05:53:49.199Z,6.45
2019-01-16T05:54:49.196Z,6.46
2019-01-16T05:55:49.181Z,6.48
2019-01-16T05:56:49.165Z,6.44
2019-01-16T05:57:49.159Z,6.46
2019-01-16T05:58:49.154Z,6.48
2019-01-16T05:59:49.136Z,6.46
2019-01-16T06:00:49.124Z,6.46
2019-01-16T06:01:49.113Z,6.46
2019-01-16T06:02:49.115Z,6.49
2019-01-16T06:03:49.095Z,6.49
2019-01-16T06:04:49.081Z,6.48
2019-01-16T06:05:49.069Z,6.41
2019-01-16T06:06:49.058Z,6.48
2019-01-16T06:07:49.048Z,6.46
2019-01-16T06:08:49.046Z,6.41
2019-01-16T06:09:49.030Z,6.49
2019-01-16T06:10:49.018Z,6.44
2019-01-16T06:11:49.014Z,6.46
2019-01-16T06:12:48.997Z,6.41
2019-01-16T06:13:48.989Z,6.39
2019-01-16T06:14:48.977Z,6.33
2019-01-16T06:15:48.966Z,6.36
2019-01-16T06:16:48.955Z,6.36
2019-01-16T06:17:48.949Z,6.41
2019-01-16T06:18:48.935Z,6.44
2019-01-16T06:19:54.021Z,6.39
2019-01-16T06:20:48.913Z,6.41
2019-01-16T06:21:48.907Z,6.41
2019-01-16T06:22:48.895Z,6.45
2019-01-16T06:23:48.883Z,6.39
2019-01-16T06:24:48.870Z,6.39
2019-01-16T06:25:48.860Z,6.41
2019-01-16T06:26:48.844Z,6.49
2019-01-16T06:27:48.836Z,6.39
2019-01-16T06:28:48.831Z,6.46
2019-01-16T06:29:48.887Z,6.49
2019-01-16T06:30:48.805Z,6.46
2019-01-16T06:31:48.794Z,6.44
2019-01-16T06:32:49.322Z,6.45
2019-01-16T06:33:48.774Z,6.49
2019-01-16T06:34:48.764Z,6.39
2019-01-16T06:35:48.756Z,6.38
2019-01-16T06:36:48.744Z,6.45
2019-01-16T06:37:48.731Z,6.42
2019-01-16T06:38:49.313Z,6.42
2019-01-16T06:39:48.706Z,6.33
2019-01-16T06:40:48.694Z,6.45
2019-01-16T06:41:48.689Z,6.42
2019-01-16T06:42:48.728Z,6.35
2019-01-16T06:43:48.665Z,6.44
2019-01-16T06:44:48.659Z,6.45
2019-01-16T06:45:48.644Z,6.41
2019-01-16T06:46:48.708Z,6.42
2019-01-16T06:47:48.624Z,6.31
2019-01-16T06:48:48.613Z,6.41
2019-01-16T06:49:48.604Z,6.31
2019-01-16T06:50:48.591Z,6.38
2019-01-16T06:51:48.584Z,6.33
2019-01-16T06:52:48.567Z,6.38
2019-01-16T06:53:48.560Z,6.36
2019-01-16T06:54:48.549Z,6.38
2019-01-16T06:55:48.535Z,6.38
2019-01-16T06:56:48.530Z,6.36
2019-01-16T06:57:48.516Z,6.35
2019-01-16T06:58:48.508Z,6.35
2019-01-16T06:59:48.492Z,6.38
2019-01-16T07:00:48.481Z,6.36
2019-01-16T07:01:48.476Z,6.35
2019-01-16T07:02:48.464Z,6.35
2019-01-16T07:03:48.453Z,6.36
2019-01-16T07:04:48.442Z,6.41
2019-01-16T07:05:48.427Z,6.36
2019-01-16T07:06:48.420Z,6.35
2019-01-16T07:07:48.412Z,6.31
2019-01-16T07:08:48.405Z,6.41
2019-01-16T07:09:48.390Z,6.27
2019-01-16T07:10:48.376Z,6.35
2019-01-16T07:11:48.364Z,6.31
2019-01-16T07:12:48.359Z,6.31
2019-01-16T07:13:48.342Z,6.28
2019-01-16T07:14:48.337Z,6.31
2019-01-16T07:15:48.322Z,6.30
2019-01-16T07:16:48.312Z,6.28
2019-01-16T07:17:48.301Z,6.27
2019-01-16T07:18:48.291Z,6.24
2019-01-16T07:19:48.286Z,6.22
2019-01-16T07:20:48.270Z,6.22
2019-01-16T07:21:48.263Z,6.24
2019-01-16T07:22:48.252Z,6.26
2019-01-16T07:23:48.244Z,6.22
2019-01-16T07:24:48.230Z,6.09
2019-01-16T07:25:48.219Z,6.16
2019-01-16T07:26:48.207Z,6.20
2019-01-16T07:27:48.203Z,6.19
2019-01-16T07:28:48.189Z,6.11
2019-01-16T07:29:48.179Z,6.08
2019-01-16T07:30:48.169Z,6.09
2019-01-16T07:31:48.165Z,6.08
2019-01-16T07:32:48.148Z,6.02
2019-01-16T07:33:48.134Z,6.09
2019-01-16T07:34:48.126Z,6.09
2019-01-16T07:35:48.117Z,6.02
2019-01-16T07:36:48.100Z,6.07
2019-01-16T07:37:48.090Z,6.02
2019-01-16T07:38:48.088Z,6.08
2019-01-16T07:39:48.076Z,6.04
2019-01-16T07:40:48.060Z,5.99
2019-01-16T07:41:48.052Z,6.08
2019-01-16T07:42:48.049Z,6.02
2019-01-16T07:43:48.032Z,6.01
2019-01-16T07:44:48.023Z,6.05
2019-01-16T07:45:48.013Z,5.99
2019-01-16T07:46:48.541Z,6.08
2019-01-16T07:47:47.989Z,6.07
2019-01-16T07:48:47.979Z,6.09
2019-01-16T07:49:47.967Z,6.08
2019-01-16T07:50:47.955Z,6.08
2019-01-16T07:51:47.946Z,6.08
2019-01-16T07:52:47.936Z,6.02
2019-01-16T07:53:47.924Z,6.16
2019-01-16T07:54:47.917Z,6.02
2019-01-16T07:55:47.902Z,6.07
2019-01-16T07:56:47.896Z,6.09
2019-01-16T07:57:47.885Z,6.11
2019-01-16T07:58:47.873Z,6.16
2019-01-16T07:59:47.859Z,6.08
2019-01-16T08:00:47.855Z,6.20
2019-01-16T08:01:47.837Z,6.24
2019-01-16T08:02:47.833Z,6.16
2019-01-16T08:03:47.822Z,6.16
2019-01-16T08:04:47.812Z,6.22
2019-01-16T08:05:47.800Z,6.19
2019-01-16T08:06:47.830Z,6.19
2019-01-16T08:07:47.780Z,6.14
2019-01-16T08:08:47.770Z,6.20
2019-01-16T08:09:47.761Z,6.20
2019-01-16T08:10:47.765Z,6.24
2019-01-16T08:11:47.736Z,6.17
2019-01-16T08:12:47.729Z,6.19
2019-01-16T08:13:47.713Z,6.24
2019-01-16T08:14:47.707Z,6.27
2019-01-16T08:15:47.695Z,6.24
2019-01-16T08:16:47.688Z,6.22
2019-01-16T08:17:47.675Z,6.19
2019-01-16T08:18:47.664Z,6.24
2019-01-16T08:19:47.663Z,6.24
2019-01-16T08:20:47.646Z,6.17
2019-01-16T08:21:47.636Z,6.19
2019-01-16T08:22:47.624Z,6.22
2019-01-16T08:23:47.612Z,6.24
2019-01-16T08:24:47.600Z,6.27
2019-01-16T08:25:47.593Z,6.31
2019-01-16T08:26:47.576Z,6.30
2019-01-16T08:27:47.568Z,6.28
2019-01-16T08:28:47.555Z,6.26
2019-01-16T08:29:47.549Z,6.28
2019-01-16T08:30:47.533Z,6.33
2019-01-16T08:31:47.534Z,6.28
2019-01-16T08:32:47.516Z,6.24
2019-01-16T08:33:47.503Z,6.24
2019-01-16T08:34:47.503Z,6.22
2019-01-16T08:35:47.487Z,6.20
2019-01-16T08:36:47.477Z,6.30
2019-01-16T08:37:47.471Z,6.24
2019-01-16T08:38:47.460Z,6.22
2019-01-16T08:39:47.446Z,6.19
2019-01-16T08:40:47.430Z,6.22
2019-01-16T08:41:47.425Z,6.20
2019-01-16T08:42:47.411Z,6.20
2019-01-16T08:43:47.408Z,6.20
2019-01-16T08:44:47.395Z,6.16
2019-01-16T08:45:47.379Z,6.22
2019-01-16T08:46:47.369Z,6.19
2019-01-16T08:47:47.359Z,6.22
2019-01-16T08:48:47.352Z,6.16
2019-01-16T08:49:47.345Z,6.17
2019-01-16T08:50:47.333Z,6.12
2019-01-16T08:51:47.322Z,6.19
2019-01-16T08:52:47.314Z,6.22
2019-01-16T08:53:47.302Z,6.19
2019-01-16T08:54:47.297Z,6.19
2019-01-16T08:55:47.274Z,6.27
2019-01-16T08:56:47.268Z,6.20
2019-01-16T08:57:47.261Z,6.22
2019-01-16T08:58:47.256Z,6.17
2019-01-16T08:59:47.241Z,6.28
2019-01-16T09:00:47.223Z,6.20
2019-01-16T09:01:47.212Z,6.12
2019-01-16T09:02:47.213Z,6.28
2019-01-16T09:03:47.190Z,6.24
2019-01-16T09:04:47.185Z,6.26
2019-01-16T09:05:47.172Z,6.19
2019-01-16T09:06:47.161Z,6.26
2019-01-16T09:07:47.152Z,6.24
2019-01-16T09:08:47.140Z,6.20
2019-01-16T09:09:47.136Z,6.19
2019-01-16T09:10:47.122Z,6.28
2019-01-16T09:11:47.110Z,6.27
2019-01-16T09:12:47.102Z,6.19
2019-01-16T09:13:47.094Z,6.28
2019-01-16T09:14:47.084Z,6.27
2019-01-16T09:15:47.073Z,6.22
2019-01-16T09:16:47.057Z,6.36
2019-01-16T09:17:47.052Z,6.30
2019-01-16T09:18:47.039Z,6.28
2019-01-16T09:19:47.030Z,6.31
2019-01-16T09:20:47.014Z,6.19
2019-01-16T09:21:47.005Z,6.27
2019-01-16T09:22:47.002Z,6.28
2019-01-16T09:23:46.989Z,6.36
2019-01-16T09:24:46.976Z,6.39
2019-01-16T09:25:46.968Z,6.31
2019-01-16T09:26:46.954Z,6.33
2019-01-16T09:27:46.942Z,6.33
2019-01-16T09:28:46.933Z,6.36
2019-01-16T09:29:46.928Z,6.33
2019-01-16T09:30:47.033Z,6.39
2019-01-16T09:31:46.904Z,6.33
2019-01-16T09:32:46.898Z,6.38
2019-01-16T09:33:46.881Z,6.44
2019-01-16T09:34:46.877Z,6.31
2019-01-16T09:35:46.861Z,6.41
2019-01-16T09:36:46.851Z,6.33
2019-01-16T09:37:46.845Z,6.33
2019-01-16T09:38:46.841Z,6.30
2019-01-16T09:39:46.824Z,6.44
2019-01-16T09:40:46.809Z,6.45
2019-01-16T09:41:46.801Z,6.35
2019-01-16T09:42:46.794Z,6.39
2019-01-16T09:43:46.782Z,6.36
2019-01-16T09:44:46.775Z,6.38
2019-01-16T09:45:46.759Z,6.36
2019-01-16T09:46:46.749Z,6.45
2019-01-16T09:47:46.739Z,6.36
2019-01-16T09:48:46.732Z,6.46
2019-01-16T09:49:46.723Z,6.41
2019-01-16T09:50:48.034Z,6.41
2019-01-16T09:51:46.696Z,6.49
2019-01-16T09:52:46.711Z,6.48
2019-01-16T09:53:46.682Z,6.45
2019-01-16T09:54:46.671Z,6.46
2019-01-16T09:55:46.656Z,6.44
2019-01-16T09:56:46.645Z,6.49
2019-01-16T09:57:47.381Z,6.57
2019-01-16T09:58:46.630Z,6.54
2019-01-16T09:59:46.618Z,6.46
2019-01-16T10:00:46.603Z,6.57
2019-01-16T10:01:46.594Z,6.46
2019-01-16T10:02:46.592Z,6.44
2019-01-16T10:03:46.573Z,6.54
2019-01-16T10:04:46.569Z,6.48
2019-01-16T10:05:46.553Z,6.51
2019-01-16T10:06:46.545Z,6.57
2019-01-16T10:07:46.540Z,6.63
2019-01-16T10:08:46.521Z,6.67
2019-01-16T10:09:46.518Z,6.56
2019-01-16T10:10:46.501Z,6.62
2019-01-16T10:11:46.496Z,6.63
2019-01-16T10:12:46.483Z,6.62
2019-01-16T10:13:46.481Z,6.66
2019-01-16T10:14:46.466Z,6.64
2019-01-16T10:15:46.449Z,6.70
2019-01-16T10:16:46.448Z,6.66
2019-01-16T10:17:46.435Z,6.62
2019-01-16T10:18:46.423Z,6.66
2019-01-16T10:19:46.416Z,6.66
2019-01-16T10:20:46.551Z,6.67
2019-01-16T10:21:46.394Z,6.70
2019-01-16T10:22:46.384Z,6.66
2019-01-16T10:23:46.374Z,6.72
2019-01-16T10:24:46.358Z,6.72
2019-01-16T10:25:46.354Z,6.69
2019-01-16T10:26:46.344Z,6.74
2019-01-16T10:27:46.333Z,6.69
2019-01-16T10:28:46.320Z,6.77
2019-01-16T10:29:46.314Z,6.81
2019-01-16T10:30:46.301Z,6.79
2019-01-16T10:31:46.291Z,6.88
2019-01-16T10:32:46.285Z,6.79
2019-01-16T10:33:46.268Z,6.82
2019-01-16T10:34:46.259Z,6.87
2019-01-16T10:35:46.246Z,6.88
2019-01-16T10:36:46.238Z,6.92
2019-01-16T10:37:46.238Z,6.92
2019-01-16T10:38:46.280Z,6.89
2019-01-16T10:39:46.212Z,6.95
2019-01-16T10:40:46.198Z,6.96
2019-01-16T10:41:46.195Z,6.93
2019-01-16T10:42:46.177Z,6.93
2019-01-16T10:43:46.171Z,6.93
2019-01-16T10:44:46.161Z,6.97
2019-01-16T10:45:46.147Z,6.87
2019-01-16T10:46:46.139Z,6.92
2019-01-16T10:47:46.132Z,6.93
2019-01-16T10:48:49.795Z,6.87
2019-01-16T10:49:46.111Z,6.88
2019-01-16T10:50:46.096Z,6.97
2019-01-16T10:51:46.088Z,7.05
2019-01-16T10:52:46.099Z,7.03
2019-01-16T10:53:46.067Z,7.02
2019-01-16T10:54:46.058Z,7.02
2019-01-16T10:55:46.045Z,7.06
2019-01-16T10:56:46.034Z,7.00
2019-01-16T10:57:46.028Z,7.02
2019-01-16T10:58:46.020Z,7.00
2019-01-16T10:59:46.007Z,7.10
2019-01-16T11:00:45.995Z,7.02
2019-01-16T11:01:45.985Z,7.03
2019-01-16T11:02:45.972Z,6.99
2019-01-16T11:03:45.961Z,7.02
2019-01-16T11:04:45.954Z,6.99
2019-01-16T11:05:45.942Z,6.93
2019-01-16T11:06:45.936Z,7.03
2019-01-16T11:07:45.923Z,7.03
2019-01-16T11:08:45.910Z,7.02
2019-01-16T11:09:45.899Z,7.07
2019-01-16T11:10:45.889Z,7.11
2019-01-16T11:11:45.877Z,7.14
2019-01-16T11:12:45.870Z,7.14
2019-01-16T11:13:45.857Z,7.06
2019-01-16T11:14:45.852Z,7.14
2019-01-16T11:15:45.843Z,7.14
2019-01-16T11:16:45.826Z,7.10
2019-01-16T11:17:45.822Z,7.07
2019-01-16T11:18:45.808Z,7.15
2019-01-16T11:19:45.801Z,7.11
2019-01-16T11:20:45.791Z,7.10
2019-01-16T11:21:45.781Z,7.11
2019-01-16T11:22:45.769Z,7.11
2019-01-16T11:23:45.750Z,7.05
2019-01-16T11:24:45.752Z,7.07
2019-01-16T11:25:45.742Z,7.06
2019-01-16T11:26:45.726Z,7.03
2019-01-16T11:27:45.720Z,7.00
2019-01-16T11:28:45.713Z,7.03
2019-01-16T11:29:45.699Z,7.02
2019-01-16T11:30:45.686Z,6.97
2019-01-16T11:31:45.680Z,7.03
2019-01-16T11:32:45.667Z,7.03
2019-01-16T11:33:45.653Z,6.97
2019-01-16T11:34:45.647Z,7.06
2019-01-16T11:35:45.639Z,7.06
2019-01-16T11:36:45.647Z,6.99
2019-01-16T11:37:45.619Z,7.11
2019-01-16T11:38:45.602Z,7.06
2019-01-16T11:39:45.596Z,7.05
2019-01-16T11:40:45.584Z,7.02
2019-01-16T11:41:45.576Z,7.13
2019-01-16T11:42:45.563Z,7.13
2019-01-16T11:43:45.558Z,7.13
2019-01-16T11:44:45.540Z,7.11
2019-01-16T11:45:45.533Z,7.07
2019-01-16T11:46:45.523Z,7.07
2019-01-16T11:47:45.514Z,7.03
2019-01-16T11:48:45.504Z,7.03
2019-01-16T11:49:45.495Z,6.99
2019-01-16T11:50:45.480Z,7.07
2019-01-16T11:51:45.471Z,7.07
2019-01-16T11:52:45.461Z,7.11
2019-01-16T11:53:45.451Z,7.11
2019-01-16T11:54:45.439Z,7.13
2019-01-16T11:55:45.433Z,7.15
2019-01-16T11:56:45.420Z,7.15
2019-01-16T11:57:45.411Z,7.38
2019-01-16T11:58:45.396Z,7.36
2019-01-16T11:59:45.390Z,7.35
2019-01-16T12:00:45.382Z,7.40
2019-01-16T12:01:45.372Z,7.32
2019-01-16T12:02:45.362Z,7.39
2019-01-16T12:03:45.350Z,7.39
2019-01-16T12:04:45.336Z,7.38
2019-01-16T12:05:45.330Z,7.36
2019-01-16T12:06:45.322Z,7.40
2019-01-16T12:07:45.311Z,7.48
2019-01-16T12:08:45.298Z,7.43
2019-01-16T12:09:45.291Z,7.47
2019-01-16T12:10:45.293Z,7.57
2019-01-16T12:11:45.267Z,7.40
2019-01-16T12:12:45.262Z,7.42
2019-01-16T12:13:45.251Z,7.51
2019-01-16T12:14:45.242Z,7.50
2019-01-16T12:15:45.235Z,7.57
2019-01-16T12:16:45.221Z,7.54
2019-01-16T12:17:45.213Z,7.51
2019-01-16T12:18:45.199Z,7.66
2019-01-16T12:19:45.192Z,7.73
2019-01-16T12:20:45.190Z,7.70
2019-01-16T12:21:45.172Z,7.69
2019-01-16T12:22:45.163Z,7.67
2019-01-16T12:23:45.152Z,7.63
2019-01-16T12:24:45.140Z,7.61
2019-01-16T12:25:45.137Z,7.57
2019-01-16T12:26:45.127Z,7.61
2019-01-16T12:27:45.115Z,7.58
2019-01-16T12:28:45.106Z,7.54
2019-01-16T12:29:45.096Z,7.53
2019-01-16T12:30:45.088Z,7.57
2019-01-16T12:31:45.071Z,7.66
2019-01-16T12:32:45.066Z,7.50
2019-01-16T12:33:45.061Z,7.43
2019-01-16T12:34:45.052Z,7.40
2019-01-16T12:35:45.037Z,7.43
2019-01-16T12:36:45.027Z,7.43
2019-01-16T12:37:45.019Z,7.58
2019-01-16T12:38:45.008Z,7.54
2019-01-16T12:39:44.996Z,7.50
2019-01-16T12:40:44.987Z,7.51
2019-01-16T12:41:44.980Z,7.54
2019-01-16T12:42:44.968Z,7.58
2019-01-16T12:43:44.960Z,7.63
2019-01-16T12:44:44.947Z,7.58
2019-01-16T12:45:44.979Z,7.63
2019-01-16T12:46:44.929Z,7.54
2019-01-16T12:47:44.920Z,7.63
2019-01-16T12:48:44.910Z,7.63
2019-01-16T12:49:44.903Z,7.67
2019-01-16T12:50:44.890Z,7.73
2019-01-16T12:51:44.881Z,7.67
2019-01-16T12:52:44.865Z,7.75
2019-01-16T12:53:44.864Z,7.80
2019-01-16T12:54:44.852Z,7.87
2019-01-16T12:55:44.840Z,7.88
2019-01-16T12:56:44.833Z,7.93
2019-01-16T12:57:44.819Z,7.87
2019-01-16T12:58:44.813Z,7.91
2019-01-16T12:59:44.802Z,7.88
2019-01-16T13:00:44.794Z,7.83
2019-01-16T13:01:44.785Z,8.00
2019-01-16T13:02:44.775Z,8.00
2019-01-16T13:03:44.764Z,7.91
2019-01-16T13:04:44.756Z,7.97
2019-01-16T13:05:44.744Z,8.05
2019-01-16T13:06:44.738Z,7.97
2019-01-16T13:07:44.729Z,8.06
2019-01-16T13:08:44.714Z,7.93
2019-01-16T13:09:44.707Z,7.97
2019-01-16T13:10:44.695Z,8.03
2019-01-16T13:11:44.690Z,7.97
2019-01-16T13:12:44.680Z,7.95
2019-01-16T13:13:44.672Z,7.95
2019-01-16T13:14:44.663Z,7.91
2019-01-16T13:15:44.650Z,7.98
2019-01-16T13:16:44.640Z,7.91
2019-01-16T13:17:44.634Z,7.91
2019-01-16T13:18:44.627Z,7.95